createdAt,value
2024-03-16T00:01:22.438Z,90.08
2024-03-16T00:03:50.275Z,90.72
2024-03-16T00:10:22.656Z,92.86
2024-03-16T00:12:49.911Z,94.04
2024-03-16T00:15:17.137Z,92.47
2024-03-16T00:17:44.364Z,92.32
2024-03-16T00:20:12.925Z,93.11
2024-03-16T00:22:40.820Z,92.65
2024-03-16T00:25:07.964Z,94.47
2024-03-16T00:27:34.891Z,98.89
2024-03-16T00:30:02.922Z,99.30
2024-03-16T00:32:29.840Z,98.02
2024-03-16T00:34:56.977Z,94.91
2024-03-16T00:37:24.483Z,94.66
2024-03-16T00:39:52.602Z,95.67
2024-03-16T00:46:06.516Z,98.45
2024-03-16T00:48:33.393Z,100.00
2024-03-16T00:51:00.410Z,98.51
2024-03-16T00:53:28.241Z,95.24
2024-03-16T00:55:56.269Z,93.54
2024-03-16T00:58:23.931Z,90.36
2024-03-16T01:00:50.837Z,94.48
2024-03-16T01:03:18.925Z,96.66
2024-03-16T01:05:51.907Z,96.30
2024-03-16T01:08:18.789Z,93.69
2024-03-16T01:10:45.681Z,89.00
2024-03-16T01:13:12.837Z,87.33
2024-03-16T01:15:39.791Z,87.90
2024-03-16T01:18:06.620Z,86.49
2024-03-16T01:20:56.805Z,88.69
2024-03-16T01:23:24.181Z,97.61
2024-03-16T01:25:52.595Z,97.14
2024-03-16T01:28:21.127Z,100.00
2024-03-16T01:30:48.121Z,100.00
2024-03-16T01:33:16.430Z,99.94
2024-03-16T01:35:43.355Z,97.06
2024-03-16T01:38:10.305Z,95.93
2024-03-16T01:40:37.341Z,96.33
2024-03-16T01:43:05.286Z,97.94
2024-03-16T01:45:34.718Z,96.28
2024-03-16T01:48:02.540Z,96.87
2024-03-16T01:50:30.148Z,96.41
2024-03-16T01:52:56.973Z,97.04
2024-03-16T01:55:23.896Z,98.10
2024-03-16T01:57:52.130Z,96.31
2024-03-16T02:00:18.957Z,94.71
2024-03-16T02:02:47.215Z,91.52
2024-03-16T02:05:13.989Z,91.74
2024-03-16T02:07:41.379Z,92.56
2024-03-16T02:10:09.475Z,92.39
2024-03-16T02:12:36.637Z,91.95
2024-03-16T02:18:29.474Z,94.25
2024-03-16T02:20:57.034Z,95.08
2024-03-16T02:23:24.127Z,93.42
2024-03-16T02:25:51.450Z,92.56
2024-03-16T02:28:18.573Z,91.67
2024-03-16T02:30:46.031Z,94.17
2024-03-16T02:33:12.845Z,96.16
2024-03-16T02:35:40.130Z,94.45
2024-03-16T02:38:06.963Z,94.43
2024-03-16T02:40:33.756Z,93.52
2024-03-16T02:43:00.892Z,96.08
2024-03-16T02:45:27.713Z,96.94
2024-03-16T02:47:54.860Z,97.91
2024-03-16T02:50:23.194Z,98.31
2024-03-16T02:52:50.047Z,97.27
2024-03-16T02:55:16.851Z,95.91
2024-03-16T02:57:44.238Z,96.67
2024-03-16T03:00:11.620Z,96.78
2024-03-16T03:02:39.914Z,97.23
2024-03-16T03:05:06.826Z,97.79
2024-03-16T03:07:34.089Z,95.74
2024-03-16T03:10:01.023Z,95.89
2024-03-16T03:12:28.028Z,98.02
2024-03-16T03:14:55.240Z,97.25
2024-03-16T03:17:22.505Z,98.00
2024-03-16T03:19:49.346Z,97.17
2024-03-16T03:22:16.624Z,96.81
2024-03-16T03:24:54.551Z,98.84
2024-03-16T03:27:21.295Z,100.00
2024-03-16T03:29:48.260Z,100.00
2024-03-16T03:32:17.857Z,100.00
2024-03-16T03:34:44.723Z,100.00
2024-03-16T03:37:11.662Z,100.00
2024-03-16T03:39:38.853Z,99.99
2024-03-16T03:42:05.747Z,99.66
2024-03-16T03:44:32.552Z,99.42
2024-03-16T03:46:59.362Z,99.23
2024-03-16T03:49:26.220Z,97.90
2024-03-16T03:51:55.286Z,95.89
2024-03-16T03:54:22.681Z,96.48
2024-03-16T03:56:49.496Z,95.52
2024-03-16T03:59:16.384Z,95.16
2024-03-16T04:01:43.595Z,96.62
2024-03-16T04:04:10.954Z,96.85
2024-03-16T04:06:38.479Z,95.70
2024-03-16T04:09:08.075Z,96.42
2024-03-16T04:11:34.915Z,96.62
2024-03-16T04:14:15.474Z,98.02
2024-03-16T04:16:48.010Z,97.20
2024-03-16T04:19:32.221Z,96.43
2024-03-16T04:21:59.079Z,95.88
2024-03-16T04:24:26.483Z,95.42
2024-03-16T04:26:54.004Z,94.61
2024-03-16T04:29:20.744Z,97.32
2024-03-16T04:31:47.591Z,98.94
2024-03-16T04:34:16.028Z,97.39
2024-03-16T04:36:42.965Z,99.14
2024-03-16T04:39:09.743Z,99.95
2024-03-16T04:41:37.468Z,100.00
2024-03-16T04:44:04.345Z,99.66
2024-03-16T04:46:32.355Z,98.30
2024-03-16T04:48:59.378Z,96.85
2024-03-16T04:51:26.381Z,94.98
2024-03-16T04:53:54.352Z,97.46
2024-03-16T04:56:21.605Z,95.72
2024-03-16T04:58:49.420Z,94.09
2024-03-16T05:01:17.190Z,93.24
2024-03-16T05:03:44.070Z,94.88
2024-03-16T05:06:10.864Z,92.82
2024-03-16T05:12:31.390Z,92.82
2024-03-16T05:14:58.266Z,91.85
2024-03-16T05:17:25.454Z,89.04
2024-03-16T05:19:52.693Z,93.65
2024-03-16T05:22:19.925Z,91.67
2024-03-16T05:24:47.816Z,92.48
2024-03-16T05:27:15.922Z,92.56
2024-03-16T05:29:42.720Z,94.12
2024-03-16T05:32:12.241Z,93.15
2024-03-16T05:34:41.949Z,89.63
2024-03-16T05:37:09.912Z,88.93
2024-03-16T05:39:36.791Z,89.65
2024-03-16T05:42:04.243Z,90.55
2024-03-16T05:44:32.108Z,90.25
2024-03-16T05:47:00.215Z,91.90
2024-03-16T05:49:28.134Z,92.36
2024-03-16T05:51:56.562Z,92.53
2024-03-16T05:54:25.203Z,91.45
2024-03-16T05:56:52.035Z,92.86
2024-03-16T05:59:19.208Z,90.60
2024-03-16T06:01:46.152Z,91.44
2024-03-16T06:04:15.819Z,91.94
2024-03-16T06:06:42.721Z,91.27
2024-03-16T06:09:10.017Z,90.76
2024-03-16T06:11:36.914Z,89.74
2024-03-16T06:14:05.098Z,87.85
2024-03-16T06:16:31.869Z,89.01
2024-03-16T06:19:00.062Z,90.06
2024-03-16T06:21:27.212Z,90.69
2024-03-16T06:23:54.688Z,89.17
2024-03-16T06:26:21.822Z,88.59
2024-03-16T06:28:50.153Z,88.79
2024-03-16T06:31:18.078Z,88.24
2024-03-16T06:33:44.990Z,86.58
2024-03-16T06:36:12.747Z,87.45
2024-03-16T06:38:40.613Z,86.92
2024-03-16T06:41:07.772Z,88.17
2024-03-16T06:43:34.524Z,89.30
2024-03-16T06:46:04.332Z,87.53
2024-03-16T06:48:31.200Z,87.75
2024-03-16T06:50:58.034Z,88.27
2024-03-16T06:53:25.127Z,88.13
2024-03-16T06:55:52.283Z,88.77
2024-03-16T06:58:25.022Z,89.17
2024-03-16T07:00:51.898Z,87.69
2024-03-16T07:03:19.221Z,89.49
2024-03-16T07:05:45.968Z,88.38
2024-03-16T07:08:12.784Z,88.55
2024-03-16T07:10:40.920Z,87.84
2024-03-16T07:13:08.252Z,87.69
2024-03-16T07:15:35.187Z,84.93
2024-03-16T07:18:02.876Z,82.14
2024-03-16T07:20:29.696Z,80.42
2024-03-16T07:22:56.570Z,81.70
2024-03-16T07:25:23.861Z,79.69
2024-03-16T07:27:50.954Z,76.46
2024-03-16T07:30:18.160Z,76.50
2024-03-16T07:32:44.933Z,76.71
2024-03-16T07:35:14.815Z,77.31
2024-03-16T07:37:41.899Z,74.48
2024-03-16T07:40:13.833Z,74.95
2024-03-16T07:42:41.724Z,72.46
2024-03-16T07:45:11.579Z,70.92
2024-03-16T07:47:38.500Z,73.80
2024-03-16T07:50:06.360Z,73.47
2024-03-16T07:52:33.743Z,73.48
2024-03-16T07:55:00.686Z,72.74
2024-03-16T07:57:27.931Z,75.08
2024-03-16T08:03:22.466Z,76.28
2024-03-16T08:05:52.952Z,76.16
2024-03-16T08:12:25.681Z,79.03
2024-03-16T08:14:52.917Z,79.78
2024-03-16T08:17:21.185Z,79.20
2024-03-16T08:19:48.200Z,77.95
2024-03-16T08:22:16.889Z,77.77
2024-03-16T08:24:43.703Z,80.81
2024-03-16T08:27:11.508Z,80.29
2024-03-16T08:29:38.438Z,80.21
2024-03-16T08:32:05.240Z,80.59
2024-03-16T08:34:32.205Z,79.58
2024-03-16T08:37:01.941Z,78.21
2024-03-16T08:39:28.803Z,78.71
2024-03-16T08:41:57.285Z,78.21
2024-03-16T08:44:24.115Z,78.44
2024-03-16T08:46:51.254Z,78.46
2024-03-16T08:49:18.815Z,77.77
2024-03-16T08:51:48.274Z,77.58
2024-03-16T08:54:15.751Z,78.10
2024-03-16T08:56:43.314Z,78.06
2024-03-16T08:59:10.452Z,77.18
2024-03-16T09:01:40.243Z,75.90
2024-03-16T09:04:07.367Z,76.07
2024-03-16T09:06:34.207Z,74.88
2024-03-16T09:09:04.518Z,73.60
2024-03-16T09:11:32.766Z,72.91
2024-03-16T09:14:02.308Z,72.10
2024-03-16T09:16:29.252Z,72.13
2024-03-16T09:18:58.946Z,73.38
2024-03-16T09:21:25.688Z,73.10
2024-03-16T09:24:32.183Z,74.46
2024-03-16T09:26:59.011Z,74.61
2024-03-16T09:29:25.751Z,75.09
2024-03-16T09:31:55.272Z,74.89
2024-03-16T09:34:22.179Z,75.78
2024-03-16T09:36:49.449Z,75.84
2024-03-16T09:39:16.225Z,76.48
2024-03-16T09:41:44.396Z,77.47
